Terminal Aerodrome Forecast
Issued by NWS

Home | Current Version | Previous Version | Text Only | Print | Product List | Glossary On
Versions: 1 2 3 4 5 6 7 8 9 10 11 12 13 14 15
757
FTUS44 KTSA 271121
TAFXNA
TAF
KXNA 271121Z 2712/2812 00000KT 1SM BR SCT010
      TEMPO 2712/2715 1/4SM FG VV001
     FM271500 25004KT P6SM SCT030
     FM271800 16008KT P6SM BKN150
     FM280000 14007KT P6SM BKN100 PROB30 2800/2806 -TSRA BKN050CB=

USA.gov is the U.S. government's official web portal to all federal, state and local government web resources and services.